sensor_id;sensor_type;location;lat;lon;timestamp;P1;durP1;ratioP1;P2;durP2;ratioP2
25653;SDS011;13511;48.622;9.230;2023-04-06T00:00:37;13.77;;;12.48;;
25653;SDS011;13511;48.622;9.230;2023-04-06T00:03:03;13.85;;;12.73;;
25653;SDS011;13511;48.622;9.230;2023-04-06T00:05:29;13.70;;;12.50;;
25653;SDS011;13511;48.622;9.230;2023-04-06T00:07:56;14.32;;;12.90;;
25653;SDS011;13511;48.622;9.230;2023-04-06T00:10:22;14.95;;;13.43;;
25653;SDS011;13511;48.622;9.230;2023-04-06T00:12:48;13.38;;;12.18;;
25653;SDS011;13511;48.622;9.230;2023-04-06T00:15:14;16.83;;;12.60;;
25653;SDS011;13511;48.622;9.230;2023-04-06T00:17:40;15.25;;;13.75;;
25653;SDS011;13511;48.622;9.230;2023-04-06T00:20:07;15.15;;;13.02;;
25653;SDS011;13511;48.622;9.230;2023-04-06T00:22:33;13.98;;;12.45;;
25653;SDS011;13511;48.622;9.230;2023-04-06T00:24:59;13.82;;;12.68;;
25653;SDS011;13511;48.622;9.230;2023-04-06T00:27:25;15.00;;;13.50;;
25653;SDS011;13511;48.622;9.230;2023-04-06T00:29:51;13.82;;;12.45;;
25653;SDS011;13511;48.622;9.230;2023-04-06T00:32:17;13.85;;;12.77;;
25653;SDS011;13511;48.622;9.230;2023-04-06T00:34:43;14.27;;;13.02;;
25653;SDS011;13511;48.622;9.230;2023-04-06T00:37:10;15.45;;;13.80;;
25653;SDS011;13511;48.622;9.230;2023-04-06T00:39:37;15.43;;;13.77;;
25653;SDS011;13511;48.622;9.230;2023-04-06T00:42:07;16.38;;;13.30;;
25653;SDS011;13511;48.622;9.230;2023-04-06T00:44:33;14.60;;;13.13;;
25653;SDS011;13511;48.622;9.230;2023-04-06T00:46:59;13.88;;;12.57;;
25653;SDS011;13511;48.622;9.230;2023-04-06T00:49:25;13.57;;;12.30;;
25653;SDS011;13511;48.622;9.230;2023-04-06T00:51:52;15.23;;;12.90;;
25653;SDS011;13511;48.622;9.230;2023-04-06T00:54:18;13.77;;;12.48;;
25653;SDS011;13511;48.622;9.230;2023-04-06T00:56:44;14.55;;;13.05;;
25653;SDS011;13511;48.622;9.230;2023-04-06T00:59:10;14.45;;;12.93;;
25653;SDS011;13511;48.622;9.230;2023-04-06T01:01:37;14.13;;;12.93;;
25653;SDS011;13511;48.622;9.230;2023-04-06T01:04:03;14.68;;;13.18;;
25653;SDS011;13511;48.622;9.230;2023-04-06T01:06:29;16.13;;;14.43;;
25653;SDS011;13511;48.622;9.230;2023-04-06T01:08:55;15.40;;;13.82;;
25653;SDS011;13511;48.622;9.230;2023-04-06T01:11:21;16.95;;;14.52;;
25653;SDS011;13511;48.622;9.230;2023-04-06T01:13:47;16.27;;;14.68;;
25653;SDS011;13511;48.622;9.230;2023-04-06T01:16:13;15.45;;;14.13;;
25653;SDS011;13511;48.622;9.230;2023-04-06T01:18:40;16.13;;;14.48;;
25653;SDS011;13511;48.622;9.230;2023-04-06T01:21:07;16.13;;;14.57;;
25653;SDS011;13511;48.622;9.230;2023-04-06T01:23:34;16.17;;;14.48;;
25653;SDS011;13511;48.622;9.230;2023-04-06T01:26:00;16.05;;;14.45;;
25653;SDS011;13511;48.622;9.230;2023-04-06T01:28:26;16.25;;;14.60;;
25653;SDS011;13511;48.622;9.230;2023-04-06T01:30:52;15.63;;;14.20;;
25653;SDS011;13511;48.622;9.230;2023-04-06T01:33:18;16.67;;;14.93;;
25653;SDS011;13511;48.622;9.230;2023-04-06T01:35:44;17.23;;;15.07;;
25653;SDS011;13511;48.622;9.230;2023-04-06T01:38:10;15.93;;;14.32;;
25653;SDS011;13511;48.622;9.230;2023-04-06T01:40:36;15.50;;;14.20;;
25653;SDS011;13511;48.622;9.230;2023-04-06T01:43:02;15.18;;;13.68;;
25653;SDS011;13511;48.622;9.230;2023-04-06T01:45:28;16.40;;;14.65;;
25653;SDS011;13511;48.622;9.230;2023-04-06T01:47:54;15.25;;;13.75;;
25653;SDS011;13511;48.622;9.230;2023-04-06T01:50:20;15.65;;;14.25;;
25653;SDS011;13511;48.622;9.230;2023-04-06T01:52:46;16.23;;;14.90;;
25653;SDS011;13511;48.622;9.230;2023-04-06T01:55:12;16.35;;;14.88;;
25653;SDS011;13511;48.622;9.230;2023-04-06T01:57:38;16.70;;;15.13;;
25653;SDS011;13511;48.622;9.230;2023-04-06T02:00:04;16.17;;;14.52;;
25653;SDS011;13511;48.622;9.230;2023-04-06T02:02:30;15.98;;;14.32;;
25653;SDS011;13511;48.622;9.230;2023-04-06T02:04:56;15.85;;;14.25;;
25653;SDS011;13511;48.622;9.230;2023-04-06T02:07:22;15.75;;;14.15;;
25653;SDS011;13511;48.622;9.230;2023-04-06T02:09:48;16.85;;;15.07;;
25653;SDS011;13511;48.622;9.230;2023-04-06T02:12:14;16.30;;;14.70;;
25653;SDS011;13511;48.622;9.230;2023-04-06T02:14:40;17.77;;;15.05;;
25653;SDS011;13511;48.622;9.230;2023-04-06T02:17:06;16.95;;;15.15;;
25653;SDS011;13511;48.622;9.230;2023-04-06T02:19:32;16.02;;;14.63;;
25653;SDS011;13511;48.622;9.230;2023-04-06T02:21:58;16.55;;;15.05;;
25653;SDS011;13511;48.622;9.230;2023-04-06T02:24:25;16.50;;;15.00;;
25653;SDS011;13511;48.622;9.230;2023-04-06T02:26:51;16.23;;;14.18;;
25653;SDS011;13511;48.622;9.230;2023-04-06T02:29:17;16.55;;;14.60;;
25653;SDS011;13511;48.622;9.230;2023-04-06T02:31:43;16.80;;;15.05;;
25653;SDS011;13511;48.622;9.230;2023-04-06T02:34:09;16.25;;;14.75;;
25653;SDS011;13511;48.622;9.230;2023-04-06T02:36:37;16.83;;;15.05;;
25653;SDS011;13511;48.622;9.230;2023-04-06T02:39:03;17.00;;;15.40;;
25653;SDS011;13511;48.622;9.230;2023-04-06T02:41:29;16.13;;;14.70;;
25653;SDS011;13511;48.622;9.230;2023-04-06T02:43:55;16.75;;;15.00;;
25653;SDS011;13511;48.622;9.230;2023-04-06T02:46:21;16.52;;;15.02;;
25653;SDS011;13511;48.622;9.230;2023-04-06T02:48:47;16.48;;;14.85;;
25653;SDS011;13511;48.622;9.230;2023-04-06T02:51:13;16.38;;;14.88;;
25653;SDS011;13511;48.622;9.230;2023-04-06T02:53:39;17.52;;;15.05;;
25653;SDS011;13511;48.622;9.230;2023-04-06T02:56:05;17.67;;;15.98;;
25653;SDS011;13511;48.622;9.230;2023-04-06T02:58:31;19.60;;;16.40;;
25653;SDS011;13511;48.622;9.230;2023-04-06T03:00:57;17.88;;;15.85;;
25653;SDS011;13511;48.622;9.230;2023-04-06T03:03:23;17.08;;;15.23;;
25653;SDS011;13511;48.622;9.230;2023-04-06T03:05:50;16.83;;;15.23;;
25653;SDS011;13511;48.622;9.230;2023-04-06T03:08:16;17.80;;;16.00;;
25653;SDS011;13511;48.622;9.230;2023-04-06T03:10:42;17.67;;;15.68;;
25653;SDS011;13511;48.622;9.230;2023-04-06T03:13:08;17.30;;;15.75;;
25653;SDS011;13511;48.622;9.230;2023-04-06T03:15:34;17.08;;;15.50;;
25653;SDS011;13511;48.622;9.230;2023-04-06T03:18:00;17.77;;;16.00;;
25653;SDS011;13511;48.622;9.230;2023-04-06T03:20:26;18.23;;;16.33;;
25653;SDS011;13511;48.622;9.230;2023-04-06T03:22:52;17.63;;;15.95;;
25653;SDS011;13511;48.622;9.230;2023-04-06T03:25:18;18.95;;;17.13;;
25653;SDS011;13511;48.622;9.230;2023-04-06T03:27:44;17.50;;;15.80;;
25653;SDS011;13511;48.622;9.230;2023-04-06T03:30:10;18.75;;;17.02;;
25653;SDS011;13511;48.622;9.230;2023-04-06T03:32:36;22.70;;;17.80;;
25653;SDS011;13511;48.622;9.230;2023-04-06T03:35:03;18.73;;;16.85;;
25653;SDS011;13511;48.622;9.230;2023-04-06T03:37:29;20.00;;;18.00;;
25653;SDS011;13511;48.622;9.230;2023-04-06T03:39:55;20.65;;;18.08;;
25653;SDS011;13511;48.622;9.230;2023-04-06T03:42:21;19.55;;;17.65;;
25653;SDS011;13511;48.622;9.230;2023-04-06T03:44:47;19.73;;;17.88;;
25653;SDS011;13511;48.622;9.230;2023-04-06T03:47:13;19.80;;;17.80;;
25653;SDS011;13511;48.622;9.230;2023-04-06T03:49:39;19.08;;;17.38;;
25653;SDS011;13511;48.622;9.230;2023-04-06T03:52:05;19.60;;;17.85;;
25653;SDS011;13511;48.622;9.230;2023-04-06T03:54:31;20.08;;;18.13;;
25653;SDS011;13511;48.622;9.230;2023-04-06T03:56:57;21.83;;;19.48;;
25653;SDS011;13511;48.622;9.230;2023-04-06T03:59:25;20.90;;;18.75;;
25653;SDS011;13511;48.622;9.230;2023-04-06T04:01:51;19.35;;;17.42;;
25653;SDS011;13511;48.622;9.230;2023-04-06T04:04:17;19.60;;;17.38;;
25653;SDS011;13511;48.622;9.230;2023-04-06T04:06:43;20.27;;;18.20;;
25653;SDS011;13511;48.622;9.230;2023-04-06T04:09:09;21.10;;;18.58;;
25653;SDS011;13511;48.622;9.230;2023-04-06T04:11:35;19.83;;;17.98;;
25653;SDS011;13511;48.622;9.230;2023-04-06T04:14:01;21.08;;;18.75;;
25653;SDS011;13511;48.622;9.230;2023-04-06T04:16:27;20.02;;;18.08;;
25653;SDS011;13511;48.622;9.230;2023-04-06T04:18:53;21.75;;;19.48;;
25653;SDS011;13511;48.622;9.230;2023-04-06T04:21:19;21.30;;;19.42;;
25653;SDS011;13511;48.622;9.230;2023-04-06T04:23:45;20.42;;;18.55;;
25653;SDS011;13511;48.622;9.230;2023-04-06T04:26:11;20.63;;;18.63;;
25653;SDS011;13511;48.622;9.230;2023-04-06T04:28:37;21.55;;;19.52;;
25653;SDS011;13511;48.622;9.230;2023-04-06T04:31:03;24.15;;;20.92;;
25653;SDS011;13511;48.622;9.230;2023-04-06T04:33:29;22.88;;;20.45;;
25653;SDS011;13511;48.622;9.230;2023-04-06T04:35:55;22.08;;;19.90;;
25653;SDS011;13511;48.622;9.230;2023-04-06T04:38:21;22.15;;;19.83;;
25653;SDS011;13511;48.622;9.230;2023-04-06T04:40:47;20.98;;;18.90;;
25653;SDS011;13511;48.622;9.230;2023-04-06T04:43:13;23.17;;;20.20;;
25653;SDS011;13511;48.622;9.230;2023-04-06T04:45:39;22.02;;;18.70;;
25653;SDS011;13511;48.622;9.230;2023-04-06T04:48:05;21.40;;;19.30;;
25653;SDS011;13511;48.622;9.230;2023-04-06T04:50:33;22.23;;;19.52;;
25653;SDS011;13511;48.622;9.230;2023-04-06T04:52:59;25.80;;;18.88;;
25653;SDS011;13511;48.622;9.230;2023-04-06T04:55:25;21.85;;;19.48;;
25653;SDS011;13511;48.622;9.230;2023-04-06T04:57:51;21.60;;;19.48;;
25653;SDS011;13511;48.622;9.230;2023-04-06T05:00:18;21.67;;;19.40;;
25653;SDS011;13511;48.622;9.230;2023-04-06T05:02:45;22.15;;;19.85;;
25653;SDS011;13511;48.622;9.230;2023-04-06T05:05:11;21.42;;;19.13;;
25653;SDS011;13511;48.622;9.230;2023-04-06T05:07:37;20.60;;;18.65;;
25653;SDS011;13511;48.622;9.230;2023-04-06T05:10:03;19.77;;;18.02;;
25653;SDS011;13511;48.622;9.230;2023-04-06T05:12:30;21.02;;;18.92;;
25653;SDS011;13511;48.622;9.230;2023-04-06T05:14:56;21.35;;;19.27;;
25653;SDS011;13511;48.622;9.230;2023-04-06T05:17:22;22.02;;;18.95;;
25653;SDS011;13511;48.622;9.230;2023-04-06T05:19:48;21.23;;;18.98;;
25653;SDS011;13511;48.622;9.230;2023-04-06T05:22:14;21.85;;;18.92;;
25653;SDS011;13511;48.622;9.230;2023-04-06T05:24:42;20.83;;;18.73;;
25653;SDS011;13511;48.622;9.230;2023-04-06T05:27:08;21.20;;;19.15;;
25653;SDS011;13511;48.622;9.230;2023-04-06T05:29:34;21.77;;;19.63;;
25653;SDS011;13511;48.622;9.230;2023-04-06T05:32:01;22.33;;;19.92;;
25653;SDS011;13511;48.622;9.230;2023-04-06T05:34:27;21.27;;;18.13;;
25653;SDS011;13511;48.622;9.230;2023-04-06T05:36:53;21.40;;;19.38;;
25653;SDS011;13511;48.622;9.230;2023-04-06T05:39:19;21.45;;;19.25;;
25653;SDS011;13511;48.622;9.230;2023-04-06T05:41:45;22.40;;;20.10;;
25653;SDS011;13511;48.622;9.230;2023-04-06T05:44:11;22.02;;;19.98;;
25653;SDS011;13511;48.622;9.230;2023-04-06T05:46:37;21.08;;;19.08;;
25653;SDS011;13511;48.622;9.230;2023-04-06T05:49:03;21.20;;;19.20;;
25653;SDS011;13511;48.622;9.230;2023-04-06T05:51:29;21.90;;;19.33;;
25653;SDS011;13511;48.622;9.230;2023-04-06T05:53:55;21.02;;;18.88;;
25653;SDS011;13511;48.622;9.230;2023-04-06T05:56:22;19.65;;;17.85;;
25653;SDS011;13511;48.622;9.230;2023-04-06T05:58:49;20.73;;;18.48;;
25653;SDS011;13511;48.622;9.230;2023-04-06T06:01:15;25.33;;;18.52;;
25653;SDS011;13511;48.622;9.230;2023-04-06T06:03:41;19.80;;;18.10;;
25653;SDS011;13511;48.622;9.230;2023-04-06T06:06:07;20.38;;;18.45;;
25653;SDS011;13511;48.622;9.230;2023-04-06T06:08:33;20.05;;;17.98;;
25653;SDS011;13511;48.622;9.230;2023-04-06T06:10:59;20.13;;;18.23;;
25653;SDS011;13511;48.622;9.230;2023-04-06T06:13:25;21.70;;;19.50;;
25653;SDS011;13511;48.622;9.230;2023-04-06T06:15:51;20.83;;;18.92;;
25653;SDS011;13511;48.622;9.230;2023-04-06T06:18:17;21.00;;;19.08;;
25653;SDS011;13511;48.622;9.230;2023-04-06T06:20:43;20.90;;;18.90;;
25653;SDS011;13511;48.622;9.230;2023-04-06T06:23:10;21.10;;;19.08;;
25653;SDS011;13511;48.622;9.230;2023-04-06T06:25:36;22.95;;;18.70;;
25653;SDS011;13511;48.622;9.230;2023-04-06T06:28:02;20.33;;;18.40;;
25653;SDS011;13511;48.622;9.230;2023-04-06T06:30:28;19.50;;;17.70;;
25653;SDS011;13511;48.622;9.230;2023-04-06T06:32:54;20.48;;;18.45;;
25653;SDS011;13511;48.622;9.230;2023-04-06T06:35:20;21.15;;;18.90;;
25653;SDS011;13511;48.622;9.230;2023-04-06T06:37:46;19.73;;;17.45;;
25653;SDS011;13511;48.622;9.230;2023-04-06T06:40:12;19.60;;;17.83;;
25653;SDS011;13511;48.622;9.230;2023-04-06T06:42:40;21.05;;;18.80;;
25653;SDS011;13511;48.622;9.230;2023-04-06T06:45:07;20.73;;;18.50;;
25653;SDS011;13511;48.622;9.230;2023-04-06T06:47:33;19.92;;;17.88;;
25653;SDS011;13511;48.622;9.230;2023-04-06T06:49:59;19.73;;;17.92;;
25653;SDS011;13511;48.622;9.230;2023-04-06T06:52:25;18.65;;;17.05;;
25653;SDS011;13511;48.622;9.230;2023-04-06T06:54:51;20.17;;;17.98;;
25653;SDS011;13511;48.622;9.230;2023-04-06T06:57:17;19.42;;;17.63;;
25653;SDS011;13511;48.622;9.230;2023-04-06T06:59:43;19.92;;;17.92;;
25653;SDS011;13511;48.622;9.230;2023-04-06T07:02:09;19.48;;;17.48;;
25653;SDS011;13511;48.622;9.230;2023-04-06T07:04:35;19.40;;;17.40;;
25653;SDS011;13511;48.622;9.230;2023-04-06T07:07:01;20.98;;;18.48;;
25653;SDS011;13511;48.622;9.230;2023-04-06T07:09:28;22.40;;;19.48;;
25653;SDS011;13511;48.622;9.230;2023-04-06T07:11:54;24.08;;;19.33;;
25653;SDS011;13511;48.622;9.230;2023-04-06T07:14:21;22.05;;;19.58;;
25653;SDS011;13511;48.622;9.230;2023-04-06T07:16:47;26.80;;;19.48;;
25653;SDS011;13511;48.622;9.230;2023-04-06T07:19:15;21.88;;;19.60;;
25653;SDS011;13511;48.622;9.230;2023-04-06T07:21:41;22.42;;;20.13;;
25653;SDS011;13511;48.622;9.230;2023-04-06T07:24:07;23.65;;;20.80;;
25653;SDS011;13511;48.622;9.230;2023-04-06T07:26:33;23.17;;;20.85;;
25653;SDS011;13511;48.622;9.230;2023-04-06T07:28:59;21.42;;;19.23;;
25653;SDS011;13511;48.622;9.230;2023-04-06T07:31:25;21.08;;;19.08;;
25653;SDS011;13511;48.622;9.230;2023-04-06T07:33:51;21.90;;;19.85;;
25653;SDS011;13511;48.622;9.230;2023-04-06T07:36:17;20.88;;;18.65;;
25653;SDS011;13511;48.622;9.230;2023-04-06T07:38:43;20.83;;;18.63;;
25653;SDS011;13511;48.622;9.230;2023-04-06T07:41:11;20.52;;;18.38;;
25653;SDS011;13511;48.622;9.230;2023-04-06T07:43:37;19.83;;;17.92;;
25653;SDS011;13511;48.622;9.230;2023-04-06T07:46:03;21.08;;;19.15;;
25653;SDS011;13511;48.622;9.230;2023-04-06T07:48:29;19.83;;;18.02;;
25653;SDS011;13511;48.622;9.230;2023-04-06T07:51:04;21.83;;;19.70;;
25653;SDS011;13511;48.622;9.230;2023-04-06T07:53:31;18.77;;;16.90;;
25653;SDS011;13511;48.622;9.230;2023-04-06T07:55:58;19.90;;;17.92;;
25653;SDS011;13511;48.622;9.230;2023-04-06T07:58:24;21.45;;;19.42;;
25653;SDS011;13511;48.622;9.230;2023-04-06T08:00:51;22.40;;;20.08;;
25653;SDS011;13511;48.622;9.230;2023-04-06T08:03:17;20.55;;;17.52;;
25653;SDS011;13511;48.622;9.230;2023-04-06T08:05:45;18.60;;;17.00;;
25653;SDS011;13511;48.622;9.230;2023-04-06T08:08:11;17.73;;;16.08;;
25653;SDS011;13511;48.622;9.230;2023-04-06T08:10:37;18.63;;;16.92;;
25653;SDS011;13511;48.622;9.230;2023-04-06T08:13:03;19.23;;;17.33;;
25653;SDS011;13511;48.622;9.230;2023-04-06T08:15:29;18.40;;;16.70;;
25653;SDS011;13511;48.622;9.230;2023-04-06T08:17:55;18.40;;;16.55;;
25653;SDS011;13511;48.622;9.230;2023-04-06T08:20:22;17.48;;;15.73;;
25653;SDS011;13511;48.622;9.230;2023-04-06T08:22:48;17.90;;;15.52;;
25653;SDS011;13511;48.622;9.230;2023-04-06T08:25:14;19.67;;;17.33;;
25653;SDS011;13511;48.622;9.230;2023-04-06T08:27:40;18.27;;;16.13;;
25653;SDS011;13511;48.622;9.230;2023-04-06T08:30:06;17.88;;;16.08;;
25653;SDS011;13511;48.622;9.230;2023-04-06T08:32:32;17.00;;;15.43;;
25653;SDS011;13511;48.622;9.230;2023-04-06T08:34:58;17.83;;;15.98;;
25653;SDS011;13511;48.622;9.230;2023-04-06T08:37:24;17.02;;;15.43;;
25653;SDS011;13511;48.622;9.230;2023-04-06T08:39:50;17.02;;;15.43;;
25653;SDS011;13511;48.622;9.230;2023-04-06T08:42:18;18.00;;;16.17;;
25653;SDS011;13511;48.622;9.230;2023-04-06T08:44:45;17.27;;;15.60;;
25653;SDS011;13511;48.622;9.230;2023-04-06T08:47:11;18.15;;;16.35;;
25653;SDS011;13511;48.622;9.230;2023-04-06T08:49:37;17.77;;;16.08;;
25653;SDS011;13511;48.622;9.230;2023-04-06T08:52:05;18.02;;;15.75;;
25653;SDS011;13511;48.622;9.230;2023-04-06T08:54:33;17.25;;;15.35;;
25653;SDS011;13511;48.622;9.230;2023-04-06T08:56:59;17.33;;;15.48;;
25653;SDS011;13511;48.622;9.230;2023-04-06T08:59:26;17.45;;;15.70;;
25653;SDS011;13511;48.622;9.230;2023-04-06T09:01:52;17.83;;;16.23;;
25653;SDS011;13511;48.622;9.230;2023-04-06T09:04:19;17.85;;;16.15;;
25653;SDS011;13511;48.622;9.230;2023-04-06T09:06:45;17.13;;;15.52;;
25653;SDS011;13511;48.622;9.230;2023-04-06T09:09:11;17.83;;;16.15;;
25653;SDS011;13511;48.622;9.230;2023-04-06T09:11:44;17.25;;;15.75;;
25653;SDS011;13511;48.622;9.230;2023-04-06T09:14:10;16.73;;;14.93;;
25653;SDS011;13511;48.622;9.230;2023-04-06T09:16:40;16.60;;;15.20;;
25653;SDS011;13511;48.622;9.230;2023-04-06T09:19:07;17.67;;;16.10;;
25653;SDS011;13511;48.622;9.230;2023-04-06T09:21:33;17.92;;;16.33;;
25653;SDS011;13511;48.622;9.230;2023-04-06T09:23:59;16.75;;;15.30;;
25653;SDS011;13511;48.622;9.230;2023-04-06T09:26:25;17.50;;;15.93;;
25653;SDS011;13511;48.622;9.230;2023-04-06T09:28:55;17.08;;;15.57;;
25653;SDS011;13511;48.622;9.230;2023-04-06T09:31:22;17.30;;;15.75;;
25653;SDS011;13511;48.622;9.230;2023-04-06T09:33:48;18.00;;;15.93;;
25653;SDS011;13511;48.622;9.230;2023-04-06T09:36:15;17.40;;;15.57;;
25653;SDS011;13511;48.622;9.230;2023-04-06T09:38:54;16.63;;;15.20;;
25653;SDS011;13511;48.622;9.230;2023-04-06T09:41:27;18.15;;;16.23;;
25653;SDS011;13511;48.622;9.230;2023-04-06T09:44:09;18.67;;;16.83;;
25653;SDS011;13511;48.622;9.230;2023-04-06T09:46:39;18.48;;;16.55;;
25653;SDS011;13511;48.622;9.230;2023-04-06T09:49:06;18.45;;;16.45;;
25653;SDS011;13511;48.622;9.230;2023-04-06T09:54:07;16.02;;;14.52;;
25653;SDS011;13511;48.622;9.230;2023-04-06T09:56:41;16.02;;;14.32;;
25653;SDS011;13511;48.622;9.230;2023-04-06T09:59:12;14.00;;;12.70;;
25653;SDS011;13511;48.622;9.230;2023-04-06T10:01:39;14.50;;;13.20;;
25653;SDS011;13511;48.622;9.230;2023-04-06T10:04:24;15.80;;;14.30;;
25653;SDS011;13511;48.622;9.230;2023-04-06T10:06:52;12.70;;;11.50;;
25653;SDS011;13511;48.622;9.230;2023-04-06T10:09:18;12.30;;;10.98;;
25653;SDS011;13511;48.622;9.230;2023-04-06T10:11:45;15.73;;;13.88;;
25653;SDS011;13511;48.622;9.230;2023-04-06T10:14:13;15.82;;;14.38;;
25653;SDS011;13511;48.622;9.230;2023-04-06T10:16:39;15.90;;;14.25;;
25653;SDS011;13511;48.622;9.230;2023-04-06T10:19:10;15.85;;;14.25;;
25653;SDS011;13511;48.622;9.230;2023-04-06T10:21:37;14.57;;;13.20;;
25653;SDS011;13511;48.622;9.230;2023-04-06T10:24:06;14.70;;;13.55;;
25653;SDS011;13511;48.622;9.230;2023-04-06T10:26:37;13.38;;;12.27;;
25653;SDS011;13511;48.622;9.230;2023-04-06T10:29:03;14.02;;;12.82;;
25653;SDS011;13511;48.622;9.230;2023-04-06T10:31:30;16.45;;;14.80;;
25653;SDS011;13511;48.622;9.230;2023-04-06T10:33:59;15.30;;;13.77;;
25653;SDS011;13511;48.622;9.230;2023-04-06T10:36:31;14.25;;;12.95;;
25653;SDS011;13511;48.622;9.230;2023-04-06T10:38:59;13.45;;;12.30;;
25653;SDS011;13511;48.622;9.230;2023-04-06T10:41:41;12.93;;;11.80;;
25653;SDS011;13511;48.622;9.230;2023-04-06T10:44:08;13.40;;;11.75;;
25653;SDS011;13511;48.622;9.230;2023-04-06T10:46:34;12.65;;;11.43;;
25653;SDS011;13511;48.622;9.230;2023-04-06T10:49:09;13.02;;;11.88;;
25653;SDS011;13511;48.622;9.230;2023-04-06T10:51:37;12.88;;;11.85;;
25653;SDS011;13511;48.622;9.230;2023-04-06T10:54:03;12.13;;;11.02;;
25653;SDS011;13511;48.622;9.230;2023-04-06T10:56:30;12.70;;;11.50;;
25653;SDS011;13511;48.622;9.230;2023-04-06T10:58:59;12.85;;;11.63;;
25653;SDS011;13511;48.622;9.230;2023-04-06T11:01:25;12.70;;;11.57;;
25653;SDS011;13511;48.622;9.230;2023-04-06T11:03:56;13.05;;;11.93;;
25653;SDS011;13511;48.622;9.230;2023-04-06T11:06:26;13.50;;;12.25;;
25653;SDS011;13511;48.622;9.230;2023-04-06T11:08:54;12.88;;;11.77;;
25653;SDS011;13511;48.622;9.230;2023-04-06T11:11:21;13.05;;;11.95;;
25653;SDS011;13511;48.622;9.230;2023-04-06T11:13:51;13.65;;;12.32;;
25653;SDS011;13511;48.622;9.230;2023-04-06T11:16:18;12.95;;;11.95;;
25653;SDS011;13511;48.622;9.230;2023-04-06T11:21:16;11.65;;;10.85;;
25653;SDS011;13511;48.622;9.230;2023-04-06T11:23:43;12.18;;;11.18;;
25653;SDS011;13511;48.622;9.230;2023-04-06T11:26:12;11.27;;;10.30;;
25653;SDS011;13511;48.622;9.230;2023-04-06T11:28:41;11.20;;;10.45;;
25653;SDS011;13511;48.622;9.230;2023-04-06T11:31:08;11.40;;;10.38;;
25653;SDS011;13511;48.622;9.230;2023-04-06T11:33:39;9.32;;;8.80;;
25653;SDS011;13511;48.622;9.230;2023-04-06T11:36:05;10.35;;;9.50;;
25653;SDS011;13511;48.622;9.230;2023-04-06T11:38:31;9.63;;;9.13;;
25653;SDS011;13511;48.622;9.230;2023-04-06T11:40:57;10.95;;;10.15;;
25653;SDS011;13511;48.622;9.230;2023-04-06T11:43:30;10.90;;;10.10;;
25653;SDS011;13511;48.622;9.230;2023-04-06T11:46:05;9.93;;;9.25;;
25653;SDS011;13511;48.622;9.230;2023-04-06T11:48:43;10.35;;;9.52;;
25653;SDS011;13511;48.622;9.230;2023-04-06T11:51:09;11.48;;;10.68;;
25653;SDS011;13511;48.622;9.230;2023-04-06T11:53:43;10.00;;;9.40;;
25653;SDS011;13511;48.622;9.230;2023-04-06T11:56:09;10.13;;;9.57;;
25653;SDS011;13511;48.622;9.230;2023-04-06T11:58:35;11.02;;;10.18;;
25653;SDS011;13511;48.622;9.230;2023-04-06T12:01:04;10.93;;;10.23;;
25653;SDS011;13511;48.622;9.230;2023-04-06T12:03:30;11.65;;;10.70;;
25653;SDS011;13511;48.622;9.230;2023-04-06T12:05:56;11.10;;;10.27;;
25653;SDS011;13511;48.622;9.230;2023-04-06T12:08:22;10.63;;;9.82;;
25653;SDS011;13511;48.622;9.230;2023-04-06T12:10:50;10.70;;;10.00;;
25653;SDS011;13511;48.622;9.230;2023-04-06T12:13:16;10.73;;;10.02;;
25653;SDS011;13511;48.622;9.230;2023-04-06T12:15:42;10.90;;;10.10;;
25653;SDS011;13511;48.622;9.230;2023-04-06T12:18:08;9.68;;;9.05;;
25653;SDS011;13511;48.622;9.230;2023-04-06T12:20:35;9.00;;;8.25;;
25653;SDS011;13511;48.622;9.230;2023-04-06T12:23:01;9.98;;;9.38;;
25653;SDS011;13511;48.622;9.230;2023-04-06T12:25:27;9.05;;;8.55;;
25653;SDS011;13511;48.622;9.230;2023-04-06T12:27:53;8.82;;;8.25;;
25653;SDS011;13511;48.622;9.230;2023-04-06T12:30:19;7.93;;;7.40;;
25653;SDS011;13511;48.622;9.230;2023-04-06T12:32:45;8.63;;;8.05;;
25653;SDS011;13511;48.622;9.230;2023-04-06T12:35:11;8.43;;;7.93;;
25653;SDS011;13511;48.622;9.230;2023-04-06T12:37:40;9.15;;;8.55;;
25653;SDS011;13511;48.622;9.230;2023-04-06T12:40:07;9.18;;;8.27;;
25653;SDS011;13511;48.622;9.230;2023-04-06T12:42:35;9.07;;;8.48;;
25653;SDS011;13511;48.622;9.230;2023-04-06T12:45:01;10.65;;;9.88;;
25653;SDS011;13511;48.622;9.230;2023-04-06T12:47:27;9.73;;;8.95;;
25653;SDS011;13511;48.622;9.230;2023-04-06T12:49:53;9.45;;;8.85;;
25653;SDS011;13511;48.622;9.230;2023-04-06T12:52:20;8.75;;;8.25;;
25653;SDS011;13511;48.622;9.230;2023-04-06T12:54:47;9.57;;;8.95;;
25653;SDS011;13511;48.622;9.230;2023-04-06T12:57:13;9.45;;;8.82;;
25653;SDS011;13511;48.622;9.230;2023-04-06T12:59:42;8.88;;;8.38;;
25653;SDS011;13511;48.622;9.230;2023-04-06T13:02:09;8.75;;;8.25;;
25653;SDS011;13511;48.622;9.230;2023-04-06T13:04:35;8.25;;;7.85;;
25653;SDS011;13511;48.622;9.230;2023-04-06T13:07:01;9.20;;;8.70;;
25653;SDS011;13511;48.622;9.230;2023-04-06T13:09:27;9.70;;;9.02;;
25653;SDS011;13511;48.622;9.230;2023-04-06T13:11:53;9.98;;;9.18;;
25653;SDS011;13511;48.622;9.230;2023-04-06T13:14:20;8.93;;;8.32;;
25653;SDS011;13511;48.622;9.230;2023-04-06T13:16:46;9.52;;;8.93;;
25653;SDS011;13511;48.622;9.230;2023-04-06T13:19:12;9.15;;;8.60;;
25653;SDS011;13511;48.622;9.230;2023-04-06T13:21:38;8.68;;;8.05;;
25653;SDS011;13511;48.622;9.230;2023-04-06T13:24:05;9.43;;;8.82;;
25653;SDS011;13511;48.622;9.230;2023-04-06T13:26:31;9.13;;;8.63;;
25653;SDS011;13511;48.622;9.230;2023-04-06T13:28:57;8.70;;;8.10;;
25653;SDS011;13511;48.622;9.230;2023-04-06T13:31:23;9.55;;;8.80;;
25653;SDS011;13511;48.622;9.230;2023-04-06T13:33:49;9.68;;;8.98;;
25653;SDS011;13511;48.622;9.230;2023-04-06T13:36:15;9.77;;;9.18;;
25653;SDS011;13511;48.622;9.230;2023-04-06T13:38:41;9.73;;;8.95;;
25653;SDS011;13511;48.622;9.230;2023-04-06T13:41:07;9.90;;;9.13;;
25653;SDS011;13511;48.622;9.230;2023-04-06T13:43:33;9.93;;;9.20;;
25653;SDS011;13511;48.622;9.230;2023-04-06T13:45:59;10.02;;;9.38;;
25653;SDS011;13511;48.622;9.230;2023-04-06T13:48:26;10.30;;;9.35;;
25653;SDS011;13511;48.622;9.230;2023-04-06T13:50:52;9.55;;;8.98;;
25653;SDS011;13511;48.622;9.230;2023-04-06T13:53:18;9.20;;;8.60;;
25653;SDS011;13511;48.622;9.230;2023-04-06T13:55:51;8.90;;;8.40;;
25653;SDS011;13511;48.622;9.230;2023-04-06T13:58:17;9.30;;;8.70;;
25653;SDS011;13511;48.622;9.230;2023-04-06T14:00:43;9.20;;;8.63;;
25653;SDS011;13511;48.622;9.230;2023-04-06T14:03:09;9.10;;;8.40;;
25653;SDS011;13511;48.622;9.230;2023-04-06T14:05:35;9.00;;;8.50;;
25653;SDS011;13511;48.622;9.230;2023-04-06T14:08:01;8.63;;;8.13;;
25653;SDS011;13511;48.622;9.230;2023-04-06T14:10:27;9.23;;;8.63;;
25653;SDS011;13511;48.622;9.230;2023-04-06T14:12:53;8.73;;;8.18;;
25653;SDS011;13511;48.622;9.230;2023-04-06T14:15:20;8.95;;;8.32;;
25653;SDS011;13511;48.622;9.230;2023-04-06T14:17:47;9.90;;;9.10;;
25653;SDS011;13511;48.622;9.230;2023-04-06T14:20:13;8.90;;;8.27;;
25653;SDS011;13511;48.622;9.230;2023-04-06T14:22:40;9.93;;;9.15;;
25653;SDS011;13511;48.622;9.230;2023-04-06T14:25:07;9.68;;;8.98;;
25653;SDS011;13511;48.622;9.230;2023-04-06T14:27:33;9.35;;;8.68;;